sensor_id;sensor_type;location;lat;lon;timestamp;temperature;humidity
37478;DHT22;23334;54.316;10.182;2023-12-14T00:01:16;4.30;99.90
37478;DHT22;23334;54.316;10.182;2023-12-14T00:03:41;4.30;99.90
37478;DHT22;23334;54.316;10.182;2023-12-14T00:06:09;4.30;99.90
37478;DHT22;23334;54.316;10.182;2023-12-14T00:08:35;5.40;99.90
37478;DHT22;23334;54.316;10.182;2023-12-14T00:11:09;4.30;99.90
37478;DHT22;23334;54.316;10.182;2023-12-14T00:13:35;4.30;99.90
37478;DHT22;23334;54.316;10.182;2023-12-14T00:16:01;4.30;99.90
37478;DHT22;23334;54.316;10.182;2023-12-14T00:18:27;4.30;99.90
37478;DHT22;23334;54.316;10.182;2023-12-14T00:20:53;4.30;99.90
37478;DHT22;23334;54.316;10.182;2023-12-14T00:23:20;4.30;99.90
37478;DHT22;23334;54.316;10.182;2023-12-14T00:25:46;4.30;99.90
37478;DHT22;23334;54.316;10.182;2023-12-14T00:28:11;4.30;99.90
37478;DHT22;23334;54.316;10.182;2023-12-14T00:30:37;4.30;99.90
37478;DHT22;23334;54.316;10.182;2023-12-14T00:33:03;4.30;99.90
37478;DHT22;23334;54.316;10.182;2023-12-14T00:35:30;4.30;99.90
37478;DHT22;23334;54.316;10.182;2023-12-14T00:37:57;4.30;99.90
37478;DHT22;23334;54.316;10.182;2023-12-14T00:40:23;4.40;99.90
37478;DHT22;23334;54.316;10.182;2023-12-14T00:42:48;4.40;99.90
37478;DHT22;23334;54.316;10.182;2023-12-14T00:45:14;4.40;99.90
37478;DHT22;23334;54.316;10.182;2023-12-14T00:47:39;4.40;99.90
37478;DHT22;23334;54.316;10.182;2023-12-14T00:50:06;4.30;99.90
37478;DHT22;23334;54.316;10.182;2023-12-14T00:52:32;4.30;99.90
37478;DHT22;23334;54.316;10.182;2023-12-14T00:54:57;4.30;99.90
37478;DHT22;23334;54.316;10.182;2023-12-14T00:57:23;4.30;99.90
37478;DHT22;23334;54.316;10.182;2023-12-14T00:59:48;4.30;99.90
37478;DHT22;23334;54.316;10.182;2023-12-14T01:02:14;4.30;99.90
37478;DHT22;23334;54.316;10.182;2023-12-14T01:04:39;4.30;99.90
37478;DHT22;23334;54.316;10.182;2023-12-14T01:07:06;4.30;99.90
37478;DHT22;23334;54.316;10.182;2023-12-14T01:09:32;4.30;99.90
37478;DHT22;23334;54.316;10.182;2023-12-14T01:11:57;4.30;99.90
37478;DHT22;23334;54.316;10.182;2023-12-14T01:14:23;4.30;99.90
37478;DHT22;23334;54.316;10.182;2023-12-14T01:16:49;4.30;99.90
37478;DHT22;23334;54.316;10.182;2023-12-14T01:19:14;4.30;99.90
37478;DHT22;23334;54.316;10.182;2023-12-14T01:21:40;4.30;99.90
37478;DHT22;23334;54.316;10.182;2023-12-14T01:24:05;4.30;99.90
37478;DHT22;23334;54.316;10.182;2023-12-14T01:26:31;4.40;99.90
37478;DHT22;23334;54.316;10.182;2023-12-14T01:28:57;4.40;99.90
37478;DHT22;23334;54.316;10.182;2023-12-14T01:31:24;4.30;99.90
37478;DHT22;23334;54.316;10.182;2023-12-14T01:33:50;4.30;99.90
37478;DHT22;23334;54.316;10.182;2023-12-14T01:36:24;4.30;99.90
37478;DHT22;23334;54.316;10.182;2023-12-14T01:38:52;4.30;99.90
37478;DHT22;23334;54.316;10.182;2023-12-14T01:41:19;4.30;99.90
37478;DHT22;23334;54.316;10.182;2023-12-14T01:43:45;4.30;99.90
37478;DHT22;23334;54.316;10.182;2023-12-14T01:46:11;4.30;99.90
37478;DHT22;23334;54.316;10.182;2023-12-14T01:48:36;4.40;99.90
37478;DHT22;23334;54.316;10.182;2023-12-14T01:51:03;4.30;99.90
37478;DHT22;23334;54.316;10.182;2023-12-14T01:53:28;4.30;99.90
37478;DHT22;23334;54.316;10.182;2023-12-14T01:55:54;4.30;99.90
37478;DHT22;23334;54.316;10.182;2023-12-14T01:58:20;4.30;99.90
37478;DHT22;23334;54.316;10.182;2023-12-14T02:01:00;4.30;99.90
37478;DHT22;23334;54.316;10.182;2023-12-14T02:03:28;4.30;99.90
37478;DHT22;23334;54.316;10.182;2023-12-14T02:05:54;4.30;99.90
37478;DHT22;23334;54.316;10.182;2023-12-14T02:08:19;4.30;99.90
37478;DHT22;23334;54.316;10.182;2023-12-14T02:10:45;4.30;99.90
37478;DHT22;23334;54.316;10.182;2023-12-14T02:13:10;4.40;99.90
37478;DHT22;23334;54.316;10.182;2023-12-14T02:15:36;4.30;99.90
37478;DHT22;23334;54.316;10.182;2023-12-14T02:18:01;4.30;99.90
37478;DHT22;23334;54.316;10.182;2023-12-14T02:20:28;4.30;99.90
37478;DHT22;23334;54.316;10.182;2023-12-14T02:22:57;4.30;99.90
37478;DHT22;23334;54.316;10.182;2023-12-14T02:25:23;4.30;99.90
37478;DHT22;23334;54.316;10.182;2023-12-14T02:27:54;4.30;99.90
37478;DHT22;23334;54.316;10.182;2023-12-14T02:30:19;4.30;99.90
37478;DHT22;23334;54.316;10.182;2023-12-14T02:32:45;4.30;99.90
37478;DHT22;23334;54.316;10.182;2023-12-14T02:35:10;4.20;99.90
37478;DHT22;23334;54.316;10.182;2023-12-14T02:37:36;4.20;99.90
37478;DHT22;23334;54.316;10.182;2023-12-14T02:40:09;4.30;99.90
37478;DHT22;23334;54.316;10.182;2023-12-14T02:42:34;4.30;99.90
37478;DHT22;23334;54.316;10.182;2023-12-14T02:45:01;4.30;99.90
37478;DHT22;23334;54.316;10.182;2023-12-14T02:47:28;4.30;99.90
37478;DHT22;23334;54.316;10.182;2023-12-14T02:49:53;4.30;99.90
37478;DHT22;23334;54.316;10.182;2023-12-14T02:52:19;4.30;99.90
37478;DHT22;23334;54.316;10.182;2023-12-14T02:54:46;4.30;99.90
37478;DHT22;23334;54.316;10.182;2023-12-14T02:57:12;4.30;99.90
37478;DHT22;23334;54.316;10.182;2023-12-14T02:59:37;4.30;99.90
37478;DHT22;23334;54.316;10.182;2023-12-14T03:02:03;4.30;99.90
37478;DHT22;23334;54.316;10.182;2023-12-14T03:04:29;4.30;99.90
37478;DHT22;23334;54.316;10.182;2023-12-14T03:06:55;4.30;99.90
37478;DHT22;23334;54.316;10.182;2023-12-14T03:09:21;4.30;99.90
37478;DHT22;23334;54.316;10.182;2023-12-14T03:11:47;4.30;99.90
37478;DHT22;23334;54.316;10.182;2023-12-14T03:14:13;4.30;99.90
37478;DHT22;23334;54.316;10.182;2023-12-14T03:16:38;4.30;99.90
37478;DHT22;23334;54.316;10.182;2023-12-14T03:19:05;4.30;99.90
37478;DHT22;23334;54.316;10.182;2023-12-14T03:21:30;4.30;99.90
37478;DHT22;23334;54.316;10.182;2023-12-14T03:23:57;4.30;99.90
37478;DHT22;23334;54.316;10.182;2023-12-14T03:26:24;4.30;99.90
37478;DHT22;23334;54.316;10.182;2023-12-14T03:28:49;4.30;99.90
37478;DHT22;23334;54.316;10.182;2023-12-14T03:31:15;4.30;99.90
37478;DHT22;23334;54.316;10.182;2023-12-14T03:33:41;4.30;99.90
37478;DHT22;23334;54.316;10.182;2023-12-14T03:36:07;4.30;99.90
37478;DHT22;23334;54.316;10.182;2023-12-14T03:38:33;4.30;99.90
37478;DHT22;23334;54.316;10.182;2023-12-14T03:40:58;4.30;99.90
37478;DHT22;23334;54.316;10.182;2023-12-14T03:43:24;4.30;99.90
37478;DHT22;23334;54.316;10.182;2023-12-14T03:45:49;4.30;99.90
37478;DHT22;23334;54.316;10.182;2023-12-14T03:48:15;4.30;99.90
37478;DHT22;23334;54.316;10.182;2023-12-14T03:50:40;4.30;99.90
37478;DHT22;23334;54.316;10.182;2023-12-14T03:53:06;4.30;99.90
37478;DHT22;23334;54.316;10.182;2023-12-14T03:55:32;4.30;99.90
37478;DHT22;23334;54.316;10.182;2023-12-14T03:57:58;4.20;99.90
37478;DHT22;23334;54.316;10.182;2023-12-14T04:00:23;4.20;99.90
37478;DHT22;23334;54.316;10.182;2023-12-14T04:02:49;4.20;99.90
37478;DHT22;23334;54.316;10.182;2023-12-14T04:05:14;4.20;99.90
37478;DHT22;23334;54.316;10.182;2023-12-14T04:07:40;4.20;99.90
37478;DHT22;23334;54.316;10.182;2023-12-14T04:10:12;4.20;99.90
37478;DHT22;23334;54.316;10.182;2023-12-14T04:12:39;4.20;99.90
37478;DHT22;23334;54.316;10.182;2023-12-14T04:15:06;4.20;99.90
37478;DHT22;23334;54.316;10.182;2023-12-14T04:17:32;4.30;99.90
37478;DHT22;23334;54.316;10.182;2023-12-14T04:19:58;4.20;99.90
37478;DHT22;23334;54.316;10.182;2023-12-14T04:22:24;4.20;99.90
37478;DHT22;23334;54.316;10.182;2023-12-14T04:24:50;4.20;99.90
37478;DHT22;23334;54.316;10.182;2023-12-14T04:27:16;4.20;99.90
37478;DHT22;23334;54.316;10.182;2023-12-14T04:29:44;4.20;99.90
37478;DHT22;23334;54.316;10.182;2023-12-14T04:32:10;4.20;99.90
37478;DHT22;23334;54.316;10.182;2023-12-14T04:34:36;4.20;99.90
37478;DHT22;23334;54.316;10.182;2023-12-14T04:37:02;4.20;99.90
37478;DHT22;23334;54.316;10.182;2023-12-14T04:39:28;4.20;99.90
37478;DHT22;23334;54.316;10.182;2023-12-14T04:41:54;4.20;99.90
37478;DHT22;23334;54.316;10.182;2023-12-14T04:44:20;4.20;99.90
37478;DHT22;23334;54.316;10.182;2023-12-14T04:46:47;4.20;99.90
37478;DHT22;23334;54.316;10.182;2023-12-14T04:49:14;4.20;99.90
37478;DHT22;23334;54.316;10.182;2023-12-14T04:51:40;4.20;99.90
37478;DHT22;23334;54.316;10.182;2023-12-14T04:54:06;4.20;99.90
37478;DHT22;23334;54.316;10.182;2023-12-14T04:56:31;4.20;99.90
37478;DHT22;23334;54.316;10.182;2023-12-14T04:58:57;4.20;99.90
37478;DHT22;23334;54.316;10.182;2023-12-14T05:01:24;4.20;99.90
37478;DHT22;23334;54.316;10.182;2023-12-14T05:03:53;4.20;99.90
37478;DHT22;23334;54.316;10.182;2023-12-14T05:06:19;4.20;99.90
37478;DHT22;23334;54.316;10.182;2023-12-14T05:08:46;4.20;99.90
37478;DHT22;23334;54.316;10.182;2023-12-14T05:11:14;4.10;99.90
37478;DHT22;23334;54.316;10.182;2023-12-14T05:13:40;4.10;99.90
37478;DHT22;23334;54.316;10.182;2023-12-14T05:16:07;4.20;99.90
37478;DHT22;23334;54.316;10.182;2023-12-14T05:18:39;4.20;99.90
37478;DHT22;23334;54.316;10.182;2023-12-14T05:21:05;4.20;99.90
37478;DHT22;23334;54.316;10.182;2023-12-14T05:23:30;4.10;99.90
37478;DHT22;23334;54.316;10.182;2023-12-14T05:25:56;4.20;99.90
37478;DHT22;23334;54.316;10.182;2023-12-14T05:28:22;4.10;99.90
37478;DHT22;23334;54.316;10.182;2023-12-14T05:30:48;4.20;99.90
37478;DHT22;23334;54.316;10.182;2023-12-14T05:33:14;4.20;99.90
37478;DHT22;23334;54.316;10.182;2023-12-14T05:35:40;4.10;99.90
37478;DHT22;23334;54.316;10.182;2023-12-14T05:38:06;4.10;99.90
37478;DHT22;23334;54.316;10.182;2023-12-14T05:40:31;4.10;99.90
37478;DHT22;23334;54.316;10.182;2023-12-14T05:42:58;4.10;99.90
37478;DHT22;23334;54.316;10.182;2023-12-14T05:45:24;4.10;99.90
37478;DHT22;23334;54.316;10.182;2023-12-14T05:47:50;4.10;99.90
37478;DHT22;23334;54.316;10.182;2023-12-14T05:50:16;4.10;99.90
37478;DHT22;23334;54.316;10.182;2023-12-14T05:52:42;4.10;99.90
37478;DHT22;23334;54.316;10.182;2023-12-14T05:55:08;4.10;99.90
37478;DHT22;23334;54.316;10.182;2023-12-14T05:57:37;4.20;99.90
37478;DHT22;23334;54.316;10.182;2023-12-14T06:00:04;4.20;99.90
37478;DHT22;23334;54.316;10.182;2023-12-14T06:02:31;4.20;99.90
37478;DHT22;23334;54.316;10.182;2023-12-14T06:04:58;4.20;99.90
37478;DHT22;23334;54.316;10.182;2023-12-14T06:07:25;4.10;99.90
37478;DHT22;23334;54.316;10.182;2023-12-14T06:09:50;4.10;99.90
37478;DHT22;23334;54.316;10.182;2023-12-14T06:12:16;4.10;99.90
37478;DHT22;23334;54.316;10.182;2023-12-14T06:14:41;4.10;99.90
37478;DHT22;23334;54.316;10.182;2023-12-14T06:17:07;4.10;99.90
37478;DHT22;23334;54.316;10.182;2023-12-14T06:19:34;4.10;99.90
37478;DHT22;23334;54.316;10.182;2023-12-14T06:21:59;4.10;99.90
37478;DHT22;23334;54.316;10.182;2023-12-14T06:24:25;4.10;99.90
37478;DHT22;23334;54.316;10.182;2023-12-14T06:26:53;4.10;99.90
37478;DHT22;23334;54.316;10.182;2023-12-14T06:29:19;4.10;99.90
37478;DHT22;23334;54.316;10.182;2023-12-14T06:31:45;4.10;99.90
37478;DHT22;23334;54.316;10.182;2023-12-14T06:34:10;4.10;99.90
37478;DHT22;23334;54.316;10.182;2023-12-14T06:36:36;4.10;99.90
37478;DHT22;23334;54.316;10.182;2023-12-14T06:39:02;4.10;99.90
37478;DHT22;23334;54.316;10.182;2023-12-14T06:41:29;4.10;99.90
37478;DHT22;23334;54.316;10.182;2023-12-14T06:43:55;4.10;99.90
37478;DHT22;23334;54.316;10.182;2023-12-14T06:46:21;4.10;99.90
37478;DHT22;23334;54.316;10.182;2023-12-14T06:48:47;4.10;99.90
37478;DHT22;23334;54.316;10.182;2023-12-14T06:51:13;4.10;99.90
37478;DHT22;23334;54.316;10.182;2023-12-14T06:53:43;4.10;99.90
37478;DHT22;23334;54.316;10.182;2023-12-14T06:56:09;4.10;99.90
37478;DHT22;23334;54.316;10.182;2023-12-14T06:58:43;4.20;99.90
37478;DHT22;23334;54.316;10.182;2023-12-14T07:01:13;4.20;99.90
37478;DHT22;23334;54.316;10.182;2023-12-14T07:03:40;4.20;99.90
37478;DHT22;23334;54.316;10.182;2023-12-14T07:06:07;4.20;99.90
37478;DHT22;23334;54.316;10.182;2023-12-14T07:08:33;4.30;99.90
37478;DHT22;23334;54.316;10.182;2023-12-14T07:10:58;4.30;99.90
37478;DHT22;23334;54.316;10.182;2023-12-14T07:13:24;4.30;99.90
37478;DHT22;23334;54.316;10.182;2023-12-14T07:15:49;4.20;99.90
37478;DHT22;23334;54.316;10.182;2023-12-14T07:18:15;4.30;99.90
37478;DHT22;23334;54.316;10.182;2023-12-14T07:20:41;4.20;99.90
37478;DHT22;23334;54.316;10.182;2023-12-14T07:23:07;4.20;99.90
37478;DHT22;23334;54.316;10.182;2023-12-14T07:25:32;4.20;99.90
37478;DHT22;23334;54.316;10.182;2023-12-14T07:27:59;4.20;99.90
37478;DHT22;23334;54.316;10.182;2023-12-14T07:30:25;4.30;99.90
37478;DHT22;23334;54.316;10.182;2023-12-14T07:32:50;4.30;99.90
37478;DHT22;23334;54.316;10.182;2023-12-14T07:35:16;4.30;99.90
37478;DHT22;23334;54.316;10.182;2023-12-14T07:37:41;4.30;99.90
37478;DHT22;23334;54.316;10.182;2023-12-14T07:40:08;4.30;99.90
37478;DHT22;23334;54.316;10.182;2023-12-14T07:42:34;4.30;99.90
37478;DHT22;23334;54.316;10.182;2023-12-14T07:45:01;4.30;99.90
37478;DHT22;23334;54.316;10.182;2023-12-14T07:47:27;4.40;99.90
37478;DHT22;23334;54.316;10.182;2023-12-14T07:49:52;4.40;99.90
37478;DHT22;23334;54.316;10.182;2023-12-14T07:52:18;4.40;99.90
37478;DHT22;23334;54.316;10.182;2023-12-14T07:54:44;4.40;99.90
37478;DHT22;23334;54.316;10.182;2023-12-14T07:57:09;4.40;99.90
37478;DHT22;23334;54.316;10.182;2023-12-14T07:59:36;4.40;99.90
37478;DHT22;23334;54.316;10.182;2023-12-14T08:02:03;4.40;99.90
37478;DHT22;23334;54.316;10.182;2023-12-14T08:04:29;4.40;99.90
37478;DHT22;23334;54.316;10.182;2023-12-14T08:06:54;4.40;99.90
37478;DHT22;23334;54.316;10.182;2023-12-14T08:09:21;4.40;99.90
37478;DHT22;23334;54.316;10.182;2023-12-14T08:11:48;4.40;99.90
37478;DHT22;23334;54.316;10.182;2023-12-14T08:14:13;4.40;99.90
37478;DHT22;23334;54.316;10.182;2023-12-14T08:16:39;4.50;99.90
37478;DHT22;23334;54.316;10.182;2023-12-14T08:19:04;4.50;99.90
37478;DHT22;23334;54.316;10.182;2023-12-14T08:21:30;4.50;99.90
37478;DHT22;23334;54.316;10.182;2023-12-14T08:23:56;4.50;99.90
37478;DHT22;23334;54.316;10.182;2023-12-14T08:26:21;3.20;99.90
37478;DHT22;23334;54.316;10.182;2023-12-14T08:28:47;4.60;99.90
37478;DHT22;23334;54.316;10.182;2023-12-14T08:31:12;4.60;99.90
37478;DHT22;23334;54.316;10.182;2023-12-14T08:33:41;4.70;99.90
37478;DHT22;23334;54.316;10.182;2023-12-14T08:36:09;4.60;99.90
37478;DHT22;23334;54.316;10.182;2023-12-14T08:38:35;4.60;99.90
37478;DHT22;23334;54.316;10.182;2023-12-14T08:41:02;4.60;99.90
37478;DHT22;23334;54.316;10.182;2023-12-14T08:43:28;4.60;99.90
37478;DHT22;23334;54.316;10.182;2023-12-14T08:45:53;4.70;99.90
37478;DHT22;23334;54.316;10.182;2023-12-14T08:48:19;4.70;99.90
37478;DHT22;23334;54.316;10.182;2023-12-14T08:50:45;4.60;99.90
37478;DHT22;23334;54.316;10.182;2023-12-14T08:53:10;4.60;99.90
37478;DHT22;23334;54.316;10.182;2023-12-14T08:55:36;4.60;99.90
37478;DHT22;23334;54.316;10.182;2023-12-14T08:58:03;4.70;99.90
37478;DHT22;23334;54.316;10.182;2023-12-14T09:00:29;4.70;99.90
37478;DHT22;23334;54.316;10.182;2023-12-14T09:02:54;4.70;99.90
37478;DHT22;23334;54.316;10.182;2023-12-14T09:05:20;4.80;99.90
37478;DHT22;23334;54.316;10.182;2023-12-14T09:07:47;4.80;99.90
37478;DHT22;23334;54.316;10.182;2023-12-14T09:10:13;4.80;99.90
37478;DHT22;23334;54.316;10.182;2023-12-14T09:12:39;4.90;99.90
37478;DHT22;23334;54.316;10.182;2023-12-14T09:15:06;4.90;99.90
37478;DHT22;23334;54.316;10.182;2023-12-14T09:17:32;4.90;99.90
37478;DHT22;23334;54.316;10.182;2023-12-14T09:20:01;4.90;99.90
37478;DHT22;23334;54.316;10.182;2023-12-14T09:22:34;4.90;99.90
37478;DHT22;23334;54.316;10.182;2023-12-14T09:24:59;5.00;99.90
37478;DHT22;23334;54.316;10.182;2023-12-14T09:27:24;5.00;99.90
37478;DHT22;23334;54.316;10.182;2023-12-14T09:29:50;5.00;99.90
37478;DHT22;23334;54.316;10.182;2023-12-14T09:32:17;4.90;99.90
37478;DHT22;23334;54.316;10.182;2023-12-14T09:34:44;4.90;99.90
37478;DHT22;23334;54.316;10.182;2023-12-14T09:37:10;4.90;99.90
37478;DHT22;23334;54.316;10.182;2023-12-14T09:39:36;4.90;99.90
37478;DHT22;23334;54.316;10.182;2023-12-14T09:42:06;4.90;99.90
37478;DHT22;23334;54.316;10.182;2023-12-14T09:44:33;4.90;99.90
37478;DHT22;23334;54.316;10.182;2023-12-14T09:47:01;4.90;99.90
37478;DHT22;23334;54.316;10.182;2023-12-14T09:49:29;4.90;99.90
37478;DHT22;23334;54.316;10.182;2023-12-14T09:51:56;4.90;99.90
37478;DHT22;23334;54.316;10.182;2023-12-14T09:54:22;4.90;99.90
37478;DHT22;23334;54.316;10.182;2023-12-14T09:56:48;4.90;99.90
37478;DHT22;23334;54.316;10.182;2023-12-14T09:59:14;4.90;99.90
37478;DHT22;23334;54.316;10.182;2023-12-14T10:01:40;4.90;99.90
37478;DHT22;23334;54.316;10.182;2023-12-14T10:04:10;4.90;99.90
37478;DHT22;23334;54.316;10.182;2023-12-14T10:06:37;4.90;99.90
37478;DHT22;23334;54.316;10.182;2023-12-14T10:09:05;4.90;99.90
37478;DHT22;23334;54.316;10.182;2023-12-14T10:11:37;5.00;99.90
37478;DHT22;23334;54.316;10.182;2023-12-14T10:14:06;5.00;99.90
37478;DHT22;23334;54.316;10.182;2023-12-14T10:16:42;5.20;99.90
37478;DHT22;23334;54.316;10.182;2023-12-14T10:19:11;5.10;99.90
37478;DHT22;23334;54.316;10.182;2023-12-14T10:21:38;5.10;99.90
37478;DHT22;23334;54.316;10.182;2023-12-14T10:24:05;5.20;99.90
37478;DHT22;23334;54.316;10.182;2023-12-14T10:26:31;5.20;99.90
37478;DHT22;23334;54.316;10.182;2023-12-14T10:28:58;5.20;99.90
37478;DHT22;23334;54.316;10.182;2023-12-14T10:31:24;5.20;99.90
37478;DHT22;23334;54.316;10.182;2023-12-14T10:33:51;5.30;99.90
37478;DHT22;23334;54.316;10.182;2023-12-14T10:36:21;5.20;99.90
37478;DHT22;23334;54.316;10.182;2023-12-14T10:38:57;5.20;99.90
37478;DHT22;23334;54.316;10.182;2023-12-14T10:41:24;5.20;99.90
37478;DHT22;23334;54.316;10.182;2023-12-14T10:43:55;5.20;99.90
37478;DHT22;23334;54.316;10.182;2023-12-14T10:46:20;5.20;99.90
37478;DHT22;23334;54.316;10.182;2023-12-14T10:48:50;5.30;99.90
37478;DHT22;23334;54.316;10.182;2023-12-14T10:51:17;5.30;99.90
37478;DHT22;23334;54.316;10.182;2023-12-14T10:53:44;5.20;99.90
37478;DHT22;23334;54.316;10.182;2023-12-14T10:56:12;5.30;99.90
37478;DHT22;23334;54.316;10.182;2023-12-14T10:58:53;5.30;99.90
37478;DHT22;23334;54.316;10.182;2023-12-14T11:01:20;5.30;99.90
37478;DHT22;23334;54.316;10.182;2023-12-14T11:03:47;5.40;99.90
37478;DHT22;23334;54.316;10.182;2023-12-14T11:09:04;5.30;99.90
37478;DHT22;23334;54.316;10.182;2023-12-14T11:11:43;5.40;99.90
37478;DHT22;23334;54.316;10.182;2023-12-14T11:14:13;5.40;99.90
37478;DHT22;23334;54.316;10.182;2023-12-14T11:16:43;5.40;99.90
37478;DHT22;23334;54.316;10.182;2023-12-14T11:19:28;5.40;99.90
37478;DHT22;23334;54.316;10.182;2023-12-14T11:24:36;5.40;99.90
37478;DHT22;23334;54.316;10.182;2023-12-14T11:27:07;5.40;99.90
37478;DHT22;23334;54.316;10.182;2023-12-14T11:29:33;5.30;99.90
37478;DHT22;23334;54.316;10.182;2023-12-14T11:31:58;5.30;99.90
37478;DHT22;23334;54.316;10.182;2023-12-14T11:34:24;5.30;99.90
37478;DHT22;23334;54.316;10.182;2023-12-14T11:36:50;5.20;99.90
37478;DHT22;23334;54.316;10.182;2023-12-14T11:39:16;5.20;99.90
37478;DHT22;23334;54.316;10.182;2023-12-14T11:41:41;5.20;99.90
37478;DHT22;23334;54.316;10.182;2023-12-14T11:44:06;5.20;99.90
37478;DHT22;23334;54.316;10.182;2023-12-14T11:46:32;5.30;99.90
37478;DHT22;23334;54.316;10.182;2023-12-14T11:48:59;5.30;99.90
37478;DHT22;23334;54.316;10.182;2023-12-14T11:51:28;5.30;99.90
37478;DHT22;23334;54.316;10.182;2023-12-14T11:53:55;5.30;99.90
37478;DHT22;23334;54.316;10.182;2023-12-14T11:56:21;5.30;99.90
37478;DHT22;23334;54.316;10.182;2023-12-14T11:58:48;5.30;99.90
37478;DHT22;23334;54.316;10.182;2023-12-14T12:01:18;5.40;99.90
37478;DHT22;23334;54.316;10.182;2023-12-14T12:03:45;5.30;99.90
37478;DHT22;23334;54.316;10.182;2023-12-14T12:06:25;5.30;99.90
37478;DHT22;23334;54.316;10.182;2023-12-14T12:08:51;5.40;99.90
37478;DHT22;23334;54.316;10.182;2023-12-14T12:11:23;5.40;99.90
37478;DHT22;23334;54.316;10.182;2023-12-14T12:13:53;5.50;99.90
37478;DHT22;23334;54.316;10.182;2023-12-14T12:16:18;5.50;99.90
37478;DHT22;23334;54.316;10.182;2023-12-14T12:18:44;5.60;99.90
37478;DHT22;23334;54.316;10.182;2023-12-14T12:21:11;5.50;99.90
37478;DHT22;23334;54.316;10.182;2023-12-14T12:23:37;5.60;99.90
37478;DHT22;23334;54.316;10.182;2023-12-14T12:26:02;5.60;99.90
37478;DHT22;23334;54.316;10.182;2023-12-14T12:28:29;5.50;99.90
37478;DHT22;23334;54.316;10.182;2023-12-14T12:30:57;5.50;99.90
37478;DHT22;23334;54.316;10.182;2023-12-14T12:33:23;5.40;99.90
37478;DHT22;23334;54.316;10.182;2023-12-14T12:35:48;5.50;99.90
37478;DHT22;23334;54.316;10.182;2023-12-14T12:38:14;5.60;99.90
37478;DHT22;23334;54.316;10.182;2023-12-14T12:40:41;5.60;99.90
37478;DHT22;23334;54.316;10.182;2023-12-14T12:43:07;5.50;99.90
37478;DHT22;23334;54.316;10.182;2023-12-14T12:45:34;5.50;99.90
37478;DHT22;23334;54.316;10.182;2023-12-14T12:48:00;5.50;99.90
37478;DHT22;23334;54.316;10.182;2023-12-14T12:50:29;5.40;99.90
37478;DHT22;23334;54.316;10.182;2023-12-14T12:52:54;5.40;99.90
37478;DHT22;23334;54.316;10.182;2023-12-14T12:55:20;5.40;99.90
37478;DHT22;23334;54.316;10.182;2023-12-14T12:57:46;5.50;99.90
37478;DHT22;23334;54.316;10.182;2023-12-14T13:00:12;5.40;99.90
37478;DHT22;23334;54.316;10.182;2023-12-14T13:02:39;5.40;99.90
37478;DHT22;23334;54.316;10.182;2023-12-14T13:05:06;5.40;99.90
37478;DHT22;23334;54.316;10.182;2023-12-14T13:07:33;5.40;99.90
37478;DHT22;23334;54.316;10.182;2023-12-14T13:09:58;5.40;99.90
37478;DHT22;23334;54.316;10.182;2023-12-14T13:12:25;5.40;99.90
37478;DHT22;23334;54.316;10.182;2023-12-14T13:14:51;5.40;99.90
37478;DHT22;23334;54.316;10.182;2023-12-14T13:17:17;5.40;99.90
37478;DHT22;23334;54.316;10.182;2023-12-14T13:19:43;5.40;99.90
37478;DHT22;23334;54.316;10.182;2023-12-14T13:22:10;5.40;99.90
37478;DHT22;23334;54.316;10.182;2023-12-14T13:24:39;5.40;99.90
37478;DHT22;23334;54.316;10.182;2023-12-14T13:27:04;5.40;99.90
37478;DHT22;23334;54.316;10.182;2023-12-14T13:29:31;5.40;99.90
37478;DHT22;23334;54.316;10.182;2023-12-14T13:31:58;5.40;99.90
37478;DHT22;23334;54.316;10.182;2023-12-14T13:34:24;5.30;99.90
37478;DHT22;23334;54.316;10.182;2023-12-14T13:36:50;5.30;99.90
37478;DHT22;23334;54.316;10.182;2023-12-14T13:39:15;5.30;99.90
37478;DHT22;23334;54.316;10.182;2023-12-14T13:41:43;5.30;99.90
37478;DHT22;23334;54.316;10.182;2023-12-14T13:44:08;5.30;99.90
37478;DHT22;23334;54.316;10.182;2023-12-14T13:46:34;5.30;99.90
37478;DHT22;23334;54.316;10.182;2023-12-14T13:49:00;5.30;99.90
37478;DHT22;23334;54.316;10.182;2023-12-14T13:51:26;5.30;99.90
37478;DHT22;23334;54.316;10.182;2023-12-14T13:53:52;5.20;99.90
37478;DHT22;23334;54.316;10.182;2023-12-14T13:56:18;5.20;99.90
37478;DHT22;23334;54.316;10.182;2023-12-14T13:58:43;5.20;99.90
37478;DHT22;23334;54.316;10.182;2023-12-14T14:01:09;5.10;99.90
37478;DHT22;23334;54.316;10.182;2023-12-14T14:03:35;5.10;99.90
37478;DHT22;23334;54.316;10.182;2023-12-14T14:06:01;5.00;99.90
37478;DHT22;23334;54.316;10.182;2023-12-14T14:08:28;5.00;99.90
37478;DHT22;23334;54.316;10.182;2023-12-14T14:10:53;4.90;99.90
37478;DHT22;23334;54.316;10.182;2023-12-14T14:13:19;4.90;99.90
37478;DHT22;23334;54.316;10.182;2023-12-14T14:15:46;4.90;99.90
37478;DHT22;23334;54.316;10.182;2023-12-14T14:18:12;4.80;99.90
37478;DHT22;23334;54.316;10.182;2023-12-14T14:20:40;4.70;99.90
37478;DHT22;23334;54.316;10.182;2023-12-14T14:23:07;4.70;99.90
37478;DHT22;23334;54.316;10.182;2023-12-14T14:25:33;4.70;99.90
37478;DHT22;23334;54.316;10.182;2023-12-14T14:28:00;4.70;99.90
37478;DHT22;23334;54.316;10.182;2023-12-14T14:30:25;4.60;99.90
37478;DHT22;23334;54.316;10.182;2023-12-14T14:32:51;4.60;99.90
37478;DHT22;23334;54.316;10.182;2023-12-14T14:35:19;4.60;99.90
37478;DHT22;23334;54.316;10.182;2023-12-14T14:37:45;4.60;99.90
37478;DHT22;23334;54.316;10.182;2023-12-14T14:40:12;4.60;99.90
37478;DHT22;23334;54.316;10.182;2023-12-14T14:42:39;4.50;99.90
37478;DHT22;23334;54.316;10.182;2023-12-14T14:45:05;4.50;99.90
37478;DHT22;23334;54.316;10.182;2023-12-14T14:47:31;4.50;99.90
37478;DHT22;23334;54.316;10.182;2023-12-14T14:49:56;4.40;99.90
37478;DHT22;23334;54.316;10.182;2023-12-14T14:52:28;4.40;99.90
37478;DHT22;23334;54.316;10.182;2023-12-14T14:54:53;4.40;99.90
37478;DHT22;23334;54.316;10.182;2023-12-14T14:57:19;4.30;99.90
37478;DHT22;23334;54.316;10.182;2023-12-14T14:59:44;4.30;99.90
37478;DHT22;23334;54.316;10.182;2023-12-14T15:02:10;4.30;99.90
37478;DHT22;23334;54.316;10.182;2023-12-14T15:04:35;4.20;99.90
37478;DHT22;23334;54.316;10.182;2023-12-14T15:07:01;4.20;99.90
37478;DHT22;23334;54.316;10.182;2023-12-14T15:09:28;4.10;99.90
37478;DHT22;23334;54.316;10.182;2023-12-14T15:11:55;4.10;99.90
37478;DHT22;23334;54.316;10.182;2023-12-14T15:14:20;4.10;99.90
37478;DHT22;23334;54.316;10.182;2023-12-14T15:16:46;4.00;99.90
37478;DHT22;23334;54.316;10.182;2023-12-14T15:19:12;4.00;99.90
37478;DHT22;23334;54.316;10.182;2023-12-14T15:21:38;4.00;99.90
37478;DHT22;23334;54.316;10.182;2023-12-14T15:24:03;4.00;99.90
37478;DHT22;23334;54.316;10.182;2023-12-14T15:26:29;3.90;99.90
37478;DHT22;23334;54.316;10.182;2023-12-14T15:28:58;3.90;99.90
37478;DHT22;23334;54.316;10.182;2023-12-14T15:31:23;3.90;99.90